Time;durP1;ratioP1;P1;durP2;ratioP2;P2;SDS_P1;SDS_P2;PMS_P1;PMS_P2;Temp;Humidity;BMP_temperature;BMP_pressure;BME280_temperature;BME280_humidity;BME280_pressure;Samples;Min_cycle;Max_cycle;Signal;HPM_P1;HPM_P2
2023/04/24 00:01:47;;;;;;;;;11.67;10.00;;;;;10.82;88.03;100016.72;5138560;27;45449;-63
2023/04/24 00:04:13;;;;;;;;;18.33;12.00;;;;;10.74;88.39;100002.03;5136977;27;45452;-64
2023/04/24 00:06:42;;;;;;;;;12.00;10.75;;;;;10.79;88.19;100023.81;5133983;27;45182;-63
2023/04/24 00:09:09;;;;;;;;;13.33;11.67;;;;;10.83;86.74;100018.44;5118087;27;45480;-64
2023/04/24 00:11:36;;;;;;;;;14.00;10.67;;;;;10.77;87.74;100023.00;5137116;27;45573;-64
2023/04/24 00:14:01;;;;;;;;;10.67;10.00;;;;;10.70;87.88;100018.88;5138638;27;47119;-63
2023/04/24 00:16:26;;;;;;;;;11.67;11.00;;;;;10.65;87.84;100014.69;5138259;27;45433;-64
2023/04/24 00:18:55;;;;;;;;;13.75;8.75;;;;;10.71;87.57;100028.50;5138950;27;45481;-64
2023/04/24 00:21:21;;;;;;;;;15.67;11.00;;;;;10.58;87.37;100011.41;5138512;27;45314;-64
2023/04/24 00:23:47;;;;;;;;;8.50;8.00;;;;;10.69;87.51;100037.34;5151389;27;45401;-63
2023/04/24 00:26:12;;;;;;;;;11.00;10.00;;;;;10.66;87.66;100040.97;5159607;27;45324;-63
2023/04/24 00:28:38;;;;;;;;;10.75;10.50;;;;;10.56;87.68;100032.53;5158841;27;45178;-63
2023/04/24 00:31:03;;;;;;;;;15.33;13.33;;;;;10.56;87.21;100037.78;5141988;27;45425;-63
2023/04/24 00:33:29;;;;;;;;;10.75;10.25;;;;;10.54;86.68;100047.53;5141934;27;46123;-63
2023/04/24 00:35:55;;;;;;;;;10.67;9.00;;;;;10.58;87.98;100048.25;5141877;27;45386;-63
2023/04/24 00:38:21;;;;;;;;;16.33;15.33;;;;;10.51;87.58;100044.97;5143187;27;45572;-62
2023/04/24 00:40:48;;;;;;;;;11.00;9.33;;;;;10.52;87.44;100044.06;5163186;27;45373;-63
2023/04/24 00:43:13;;;;;;;;;14.67;11.00;;;;;10.47;87.98;100037.22;5162175;27;47369;-63
2023/04/24 00:45:39;;;;;;;;;9.67;8.67;;;;;10.54;87.32;100044.88;5162384;27;45401;-63
2023/04/24 00:48:04;;;;;;;;;9.00;9.00;;;;;10.49;87.77;100041.53;5143002;27;45457;-63
2023/04/24 00:50:30;;;;;;;;;15.33;12.33;;;;;10.38;87.57;100033.13;5142258;27;45475;-63
2023/04/24 00:52:56;;;;;;;;;10.00;10.00;;;;;10.51;87.47;100047.59;5141546;27;45432;-63
2023/04/24 00:55:21;;;;;;;;;11.00;9.00;;;;;10.51;88.10;100044.13;5142018;27;45268;-64
2023/04/24 00:57:48;;;;;;;;;10.00;10.00;;;;;10.48;88.16;100038.97;5156736;27;46068;-63
2023/04/24 01:00:14;;;;;;;;;12.33;10.00;;;;;10.49;87.62;100044.16;5162422;27;45560;-63
2023/04/24 01:02:44;;;;;;;;;11.00;10.00;;;;;10.53;86.96;100053.69;5143306;27;46965;-63
2023/04/24 01:05:11;;;;;;;;;8.00;7.00;;;;;10.55;87.15;100053.63;5154321;27;45353;-63
2023/04/24 01:07:39;;;;;;;;;14.00;11.33;;;;;10.48;87.49;100045.06;5141412;27;45468;-63
2023/04/24 01:10:05;;;;;;;;;12.00;11.00;;;;;10.48;87.91;100052.13;5141835;27;45500;-63
2023/04/24 01:12:30;;;;;;;;;9.67;9.00;;;;;10.52;88.09;100065.13;5141381;27;46116;-63
2023/04/24 01:14:56;;;;;;;;;12.67;11.00;;;;;10.45;87.84;100056.56;5159344;27;45475;-63
2023/04/24 01:17:22;;;;;;;;;10.00;9.67;;;;;10.45;88.54;100048.66;5162077;27;45322;-63
2023/04/24 01:19:47;;;;;;;;;13.67;10.00;;;;;10.40;89.28;100047.13;5162637;27;45344;-63
2023/04/24 01:22:16;;;;;;;;;11.67;10.00;;;;;10.54;88.79;100065.94;5161609;27;45512;-63
2023/04/24 01:24:43;;;;;;;;;18.67;14.00;;;;;10.54;88.78;100065.94;5162174;27;45319;-63
2023/04/24 01:27:10;;;;;;;;;15.33;10.67;;;;;10.53;89.65;100064.22;5162081;27;45818;-63
2023/04/24 01:29:36;;;;;;;;;12.33;12.33;;;;;10.54;89.52;100070.31;5162117;27;45488;-63
2023/04/24 01:32:03;;;;;;;;;10.00;9.00;;;;;10.53;88.56;100063.34;5159870;27;46105;-63
2023/04/24 01:34:29;;;;;;;;;15.67;12.00;;;;;10.53;89.34;100065.97;5162039;27;45375;-63
2023/04/24 01:36:55;;;;;;;;;11.67;8.33;;;;;10.53;87.75;100065.97;5162105;27;45179;-63
2023/04/24 01:39:23;;;;;;;;;11.00;11.00;;;;;10.49;88.22;100062.59;5160888;27;45173;-65
2023/04/24 01:41:49;;;;;;;;;11.67;9.00;;;;;10.38;88.82;100056.81;5148017;27;46213;-65
2023/04/24 01:44:15;;;;;;;;;13.67;10.67;;;;;10.43;89.75;100070.69;5140880;27;45385;-64
2023/04/24 01:46:41;;;;;;;;;13.67;11.67;;;;;10.43;90.88;100078.59;5141461;27;45357;-64
2023/04/24 01:49:06;;;;;;;;;12.00;9.00;;;;;10.43;89.16;100083.88;5151585;27;45269;-63
2023/04/24 01:51:32;;;;;;;;;13.67;10.00;;;;;10.41;91.20;100080.41;5161689;27;46239;-62
2023/04/24 01:53:57;;;;;;;;;15.67;13.00;;;;;10.35;92.14;100084.09;5161698;27;45410;-62
2023/04/24 01:56:23;;;;;;;;;15.33;14.00;;;;;10.37;90.95;100084.91;5161886;27;45291;-62
2023/04/24 01:58:54;;;;;;;;;15.00;13.00;;;;;10.34;91.88;100084.13;5162082;27;45525;-62
2023/04/24 02:01:20;;;;;;;;;18.33;13.67;;;;;10.31;90.46;100073.69;5161554;27;46757;-63
2023/04/24 02:03:46;;;;;;;;;16.33;10.33;;;;;10.27;90.81;100078.22;5134123;27;45592;-63
2023/04/24 02:06:11;;;;;;;;;17.00;12.67;;;;;10.32;92.23;100088.56;5143064;27;45480;-63
2023/04/24 02:08:36;;;;;;;;;18.00;14.67;;;;;10.22;93.98;100074.84;5140648;27;45394;-63
2023/04/24 02:11:02;;;;;;;;;18.00;14.00;;;;;10.33;94.21;100087.69;5140518;27;46159;-63
2023/04/24 02:13:28;;;;;;;;;18.00;15.00;;;;;10.36;93.38;100101.59;5140330;27;45367;-62
2023/04/24 02:15:53;;;;;;;;;18.00;15.00;;;;;10.29;91.97;100082.47;5140387;27;45239;-63
2023/04/24 02:18:19;;;;;;;;;13.33;13.00;;;;;10.39;92.79;100103.28;5139087;27;45715;-62
2023/04/24 02:20:45;;;;;;;;;22.33;18.33;;;;;10.42;92.09;100118.97;5140143;27;45555;-62
2023/04/24 02:23:10;;;;;;;;;24.00;21.33;;;;;10.36;90.82;100104.25;5157656;27;45485;-62
2023/04/24 02:25:35;;;;;;;;;21.33;19.33;;;;;10.17;91.95;100077.63;5161170;27;45346;-62
2023/04/24 02:28:01;;;;;;;;;23.33;20.33;;;;;10.40;91.70;100108.50;5161564;27;45426;-62
2023/04/24 02:30:26;;;;;;;;;18.67;15.67;;;;;10.46;90.52;100120.59;5161213;27;45435;-62
2023/04/24 02:32:52;;;;;;;;;20.67;20.33;;;;;10.41;90.87;100120.75;5161268;27;45342;-62
2023/04/24 02:35:17;;;;;;;;;22.33;22.33;;;;;10.47;90.23;100124.09;5160029;27;45297;-62
2023/04/24 02:37:42;;;;;;;;;23.33;18.33;;;;;10.39;90.52;100119.06;5159545;27;45146;-62
2023/04/24 02:40:08;;;;;;;;;24.67;24.67;;;;;10.43;91.29;100120.72;5161118;27;47348;-62
2023/04/24 02:42:34;;;;;;;;;20.00;19.00;;;;;10.47;91.46;100126.72;5160956;27;45306;-62
2023/04/24 02:44:59;;;;;;;;;26.67;24.00;;;;;10.44;90.92;100125.03;5161405;27;45386;-62
2023/04/24 02:47:25;;;;;;;;;25.33;20.33;;;;;10.48;90.14;100131.94;5161396;27;45314;-62
2023/04/24 02:49:50;;;;;;;;;26.33;21.33;;;;;10.51;90.02;100137.09;5160362;27;46291;-62
2023/04/24 02:52:16;;;;;;;;;27.67;23.67;;;;;10.52;90.09;100144.09;5160985;27;45326;-62
2023/04/24 02:54:42;;;;;;;;;29.33;25.67;;;;;10.53;90.69;100145.81;5139536;27;45336;-62
2023/04/24 02:57:07;;;;;;;;;25.00;22.67;;;;;10.54;90.49;100146.66;5139107;27;45435;-62
2023/04/24 02:59:33;;;;;;;;;29.67;25.67;;;;;10.54;90.91;100149.31;5140057;27;46357;-62
2023/04/24 03:01:58;;;;;;;;;30.67;24.33;;;;;10.55;89.64;100157.16;5139769;27;45400;-62
2023/04/24 03:04:24;;;;;;;;;30.67;27.00;;;;;10.51;90.44;100146.78;5139971;27;45380;-62
2023/04/24 03:06:51;;;;;;;;;26.67;25.67;;;;;10.58;90.24;100161.47;5140049;27;45302;-62
2023/04/24 03:09:16;;;;;;;;;26.33;22.67;;;;;10.53;88.68;100155.47;5139503;27;45547;-62
2023/04/24 03:11:42;;;;;;;;;30.33;24.00;;;;;10.49;88.71;100157.34;5139712;27;45320;-62
2023/04/24 03:14:07;;;;;;;;;21.67;20.33;;;;;10.39;88.77;100156.78;5147900;27;45295;-62
2023/04/24 03:16:32;;;;;;;;;28.00;24.00;;;;;10.49;89.09;100169.66;5161008;27;45383;-62
2023/04/24 03:18:58;;;;;;;;;31.00;23.00;;;;;10.52;88.56;100183.56;5160035;27;46272;-62
2023/04/24 03:21:23;;;;;;;;;31.00;24.67;;;;;10.47;89.12;100184.63;5160624;27;45276;-62
2023/04/24 03:23:49;;;;;;;;;27.00;23.33;;;;;10.48;89.69;100195.09;5160450;27;45340;-62
2023/04/24 03:26:14;;;;;;;;;25.00;24.00;;;;;10.40;90.38;100183.97;5160459;27;45185;-62
2023/04/24 03:28:39;;;;;;;;;34.00;28.33;;;;;10.45;90.81;100206.59;5155452;27;45634;-62
2023/04/24 03:31:05;;;;;;;;;26.00;22.00;;;;;10.45;89.81;100208.38;5141901;27;45369;-62
2023/04/24 03:33:30;;;;;;;;;28.67;27.33;;;;;10.32;91.74;100197.31;5127073;27;45286;-62
2023/04/24 03:35:55;;;;;;;;;25.33;21.67;;;;;10.31;91.71;100206.13;5118565;27;45604;-62
2023/04/24 03:38:21;;;;;;;;;29.33;25.33;;;;;10.34;91.34;100210.44;5118391;27;46515;-62
2023/04/24 03:40:46;;;;;;;;;22.33;19.00;;;;;10.08;90.28;100170.00;5118261;27;45316;-62
2023/04/24 03:43:11;;;;;;;;;32.67;26.67;;;;;10.32;91.53;100210.47;5118353;27;45457;-62
2023/04/24 03:45:37;;;;;;;;;25.67;23.67;;;;;10.27;91.57;100220.28;5118143;27;45411;-62
2023/04/24 03:48:02;;;;;;;;;29.67;23.67;;;;;10.25;90.98;100208.94;5121119;27;46221;-63
2023/04/24 03:50:28;;;;;;;;;33.67;24.33;;;;;10.17;90.83;100208.31;5156182;27;45551;-62
2023/04/24 03:52:54;;;;;;;;;28.00;24.00;;;;;10.16;91.74;100209.22;5160002;27;45440;-63
2023/04/24 03:55:19;;;;;;;;;26.67;25.67;;;;;10.21;91.12;100220.44;5158729;27;45637;-62
2023/04/24 03:57:45;;;;;;;;;29.00;21.67;;;;;10.11;90.84;100212.84;5159050;27;46030;-63
2023/04/24 04:00:11;;;;;;;;;23.00;19.00;;;;;10.26;90.42;100234.34;5159492;27;45316;-62
2023/04/24 04:02:36;;;;;;;;;22.67;20.33;;;;;10.29;90.43;100245.63;5164151;27;45427;-62
2023/04/24 04:05:02;;;;;;;;;23.00;19.00;;;;;10.27;90.34;100242.19;5159759;27;46159;-62
2023/04/24 04:07:27;;;;;;;;;30.33;19.67;;;;;10.29;89.66;100245.63;5145892;27;45284;-62
2023/04/24 04:09:52;;;;;;;;;19.00;16.33;;;;;10.24;89.11;100237.03;5145735;27;45960;-62
2023/04/24 04:12:18;;;;;;;;;16.33;14.67;;;;;10.36;88.79;100258.66;5163136;27;45407;-62
2023/04/24 04:14:43;;;;;;;;;25.33;17.67;;;;;10.15;88.40;100223.28;5167099;27;45210;-62
2023/04/24 04:17:08;;;;;;;;;22.00;19.67;;;;;10.32;88.49;100271.00;5166528;27;45584;-62
2023/04/24 04:19:34;;;;;;;;;18.00;15.67;;;;;10.29;87.75;100264.03;5166367;27;45407;-62
2023/04/24 04:21:59;;;;;;;;;19.33;16.00;;;;;10.06;87.03;100240.19;5166507;27;45358;-62
2023/04/24 04:24:26;;;;;;;;;19.67;17.33;;;;;10.17;88.35;100276.72;5167062;27;45331;-62
2023/04/24 04:26:51;;;;;;;;;18.33;14.00;;;;;10.17;87.93;100293.34;5164433;27;46247;-62
2023/04/24 04:29:20;;;;;;;;;21.00;17.33;;;;;10.15;87.72;100296.94;5166041;27;45582;-62
2023/04/24 04:31:46;;;;;;;;;18.33;16.00;;;;;10.13;87.93;100301.38;5167065;27;45251;-63
2023/04/24 04:34:12;;;;;;;;;18.00;15.00;;;;;10.05;87.47;100285.78;5166752;27;45325;-62
2023/04/24 04:36:39;;;;;;;;;19.00;16.00;;;;;10.13;87.91;100301.38;5165158;27;45410;-63
2023/04/24 04:39:05;;;;;;;;;19.00;16.00;;;;;10.10;87.72;100310.22;5166290;27;45382;-62
2023/04/24 04:41:31;;;;;;;;;21.33;19.67;;;;;10.02;87.43;100310.44;5156890;27;45418;-62
2023/04/24 04:43:58;;;;;;;;;19.00;16.00;;;;;10.03;87.25;100320.03;5145625;27;45489;-62
2023/04/24 04:46:25;;;;;;;;;18.00;13.00;;;;;9.94;87.33;100315.03;5145247;27;47345;-62
2023/04/24 04:48:51;;;;;;;;;21.67;15.00;;;;;9.81;87.96;100305.75;5130028;27;45219;-62
2023/04/24 04:51:16;;;;;;;;;12.00;11.33;;;;;9.88;87.60;100325.72;5105724;27;45407;-62
2023/04/24 04:53:42;;;;;;;;;23.67;19.00;;;;;9.89;86.72;100340.59;5124827;27;45488;-62
2023/04/24 04:56:07;;;;;;;;;18.00;17.00;;;;;9.85;86.77;100349.47;5124695;27;46584;-62
2023/04/24 04:58:33;;;;;;;;;19.00;15.33;;;;;9.73;86.99;100337.50;5138618;27;45436;-62
2023/04/24 05:00:58;;;;;;;;;22.33;17.33;;;;;9.65;87.50;100332.44;5166520;27;45310;-62
2023/04/24 05:03:24;;;;;;;;;23.33;19.33;;;;;9.65;87.79;100345.59;5166362;27;45550;-62
2023/04/24 05:05:49;;;;;;;;;16.33;16.33;;;;;9.71;87.16;100362.97;5165570;27;45426;-62
2023/04/24 05:08:15;;;;;;;;;23.00;18.33;;;;;9.76;87.97;100371.63;5166242;27;45212;-62
2023/04/24 05:10:40;;;;;;;;;19.33;17.00;;;;;9.68;86.59;100353.38;5166233;27;45323;-62
2023/04/24 05:13:05;;;;;;;;;22.00;18.67;;;;;9.70;86.50;100370.00;5163553;27;45398;-62
2023/04/24 05:15:31;;;;;;;;;19.33;17.00;;;;;9.69;86.53;100376.16;5162492;27;45628;-62
2023/04/24 05:17:56;;;;;;;;;26.33;19.33;;;;;9.71;86.38;100384.84;5147394;27;45365;-62
2023/04/24 05:20:22;;;;;;;;;16.00;16.00;;;;;9.70;85.77;100383.16;5126168;27;45441;-62
2023/04/24 05:22:47;;;;;;;;;22.67;18.00;;;;;9.57;86.10;100371.22;5120709;27;45375;-62
2023/04/24 05:25:13;;;;;;;;;21.00;20.33;;;;;9.61;84.82;100387.75;5120363;27;45444;-62
2023/04/24 05:27:39;;;;;;;;;21.00;21.00;;;;;9.39;85.67;100369.88;5120387;27;45393;-62
2023/04/24 05:30:05;;;;;;;;;22.67;19.00;;;;;9.59;85.07;100412.31;5148243;27;45500;-62
2023/04/24 05:32:30;;;;;;;;;22.00;17.00;;;;;9.55;85.93;100410.66;5161991;27;45423;-62
2023/04/24 05:34:55;;;;;;;;;21.67;20.67;;;;;9.51;85.34;100408.13;5162169;27;45322;-62
2023/04/24 05:37:21;;;;;;;;;26.33;18.67;;;;;9.58;85.15;100425.50;5161981;27;45414;-62
2023/04/24 05:39:46;;;;;;;;;24.67;19.00;;;;;9.68;85.09;100437.50;5162070;27;45360;-62
2023/04/24 05:42:12;;;;;;;;;22.67;18.67;;;;;9.50;85.28;100394.16;5162301;27;45372;-62
2023/04/24 05:44:37;;;;;;;;;16.67;14.67;;;;;9.79;84.15;100437.28;5161715;27;46239;-62
2023/04/24 05:47:02;;;;;;;;;22.67;21.00;;;;;9.84;84.09;100447.66;5160189;27;45287;-62
2023/04/24 05:49:28;;;;;;;;;21.33;17.67;;;;;9.90;84.46;100455.41;5162157;27;45255;-62
2023/04/24 05:51:53;;;;;;;;;22.33;18.33;;;;;9.82;83.76;100438.97;5162105;27;45828;-62
2023/04/24 05:54:18;;;;;;;;;20.67;18.67;;;;;10.09;82.82;100456.69;5150022;27;45459;-62
2023/04/24 05:56:44;;;;;;;;;19.00;18.33;;;;;10.06;82.91;100450.63;5140149;27;45289;-62
2023/04/24 05:59:09;;;;;;;;;22.33;19.33;;;;;10.17;82.79;100466.16;5140863;27;45381;-62
2023/04/24 06:01:35;;;;;;;;;17.00;15.67;;;;;10.25;82.27;100474.69;5146712;27;45462;-62
2023/04/24 06:04:02;;;;;;;;;23.67;20.33;;;;;10.20;82.21;100455.53;5161445;27;46531;-62
2023/04/24 06:06:27;;;;;;;;;19.67;18.33;;;;;10.36;81.57;100477.09;5161706;27;45411;-62
2023/04/24 06:08:53;;;;;;;;;25.00;21.00;;;;;10.35;81.32;100476.19;5161609;27;45362;-62
2023/04/24 06:11:18;;;;;;;;;24.33;20.00;;;;;10.15;80.77;100439.88;5161687;27;45424;-65
2023/04/24 06:13:43;;;;;;;;;25.67;20.00;;;;;10.48;80.53;100494.31;5161773;27;45485;-65
2023/04/24 06:16:09;;;;;;;;;26.67;23.33;;;;;10.64;81.56;100506.16;5161217;27;45467;-65
2023/04/24 06:18:34;;;;;;;;;45.67;34.33;;;;;10.77;80.48;100502.28;5160108;27;45362;-65
2023/04/24 06:21:00;;;;;;;;;24.33;22.00;;;;;10.81;80.44;100508.34;5161204;27;45534;-67
2023/04/24 06:23:25;;;;;;;;;24.00;21.00;;;;;10.74;79.96;100499.72;5161073;27;46021;-67
2023/04/24 06:25:51;;;;;;;;;22.67;19.67;;;;;10.82;80.65;100514.47;5160855;27;45285;-67
2023/04/24 06:28:16;;;;;;;;;26.33;19.00;;;;;11.03;79.95;100505.09;5161401;27;45261;-67
2023/04/24 06:30:41;;;;;;;;;32.67;30.00;;;;;12.32;77.36;100508.16;5139834;27;45654;-67
2023/04/24 06:33:07;;;;;;;;;24.00;22.67;;;;;13.17;72.56;100510.44;5140217;27;46528;-67
2023/04/24 06:35:32;;;;;;;;;23.33;20.00;;;;;12.91;71.64;100514.03;5153072;27;45431;-68
2023/04/24 06:37:57;;;;;;;;;17.00;16.00;;;;;12.72;72.90;100538.47;5160969;27;45547;-67
2023/04/24 06:40:23;;;;;;;;;21.67;21.33;;;;;12.48;72.60;100529.63;5161422;27;45476;-67
2023/04/24 06:42:48;;;;;;;;;26.67;22.00;;;;;12.35;73.24;100532.69;5161058;27;45593;-67
2023/04/24 06:45:13;;;;;;;;;24.33;22.00;;;;;12.36;73.80;100541.47;5161283;27;45886;-67
2023/04/24 06:47:39;;;;;;;;;28.33;22.67;;;;;12.63;73.55;100549.38;5160722;27;45187;-65
2023/04/24 06:50:05;;;;;;;;;29.67;24.00;;;;;12.82;72.77;100546.94;5159217;27;45573;-66
2023/04/24 06:52:33;;;;;;;;;24.67;22.00;;;;;12.82;72.31;100550.47;5160700;27;46473;-65
2023/04/24 06:55:05;;;;;;;;;42.00;34.33;;;;;12.78;72.58;100540.91;5160588;27;45365;-65
2023/04/24 06:57:31;;;;;;;;;33.00;26.00;;;;;12.86;71.85;100541.47;5161153;27;45461;-64
2023/04/24 06:59:56;;;;;;;;;26.00;24.33;;;;;12.80;71.85;100551.44;5160734;27;45455;-65
2023/04/24 07:02:22;;;;;;;;;25.00;23.00;;;;;12.66;72.16;100549.25;5139428;27;46966;-65
2023/04/24 07:04:47;;;;;;;;;26.00;21.33;;;;;12.79;72.71;100555.81;5138780;27;45764;-65
2023/04/24 07:07:14;;;;;;;;;20.67;18.67;;;;;12.85;73.05;100531.84;5147051;27;45237;-65
2023/04/24 07:09:44;;;;;;;;;20.33;19.33;;;;;12.97;71.94;100543.75;5142952;27;45395;-62
2023/04/24 07:12:13;;;;;;;;;26.33;22.67;;;;;13.10;71.43;100554.75;5139507;27;45364;-62
2023/04/24 07:14:38;;;;;;;;;22.67;19.67;;;;;13.25;71.35;100558.59;5138001;27;45578;-62
2023/04/24 07:17:05;;;;;;;;;25.67;24.00;;;;;13.24;70.96;100563.03;5150794;27;46131;-62
2023/04/24 07:19:30;;;;;;;;;21.67;17.00;;;;;13.24;70.05;100552.47;5160810;27;45409;-63
2023/04/24 07:21:58;;;;;;;;;24.33;21.67;;;;;13.28;70.46;100566.41;5160111;27;45404;-65
2023/04/24 07:24:24;;;;;;;;;24.33;22.33;;;;;13.24;70.48;100568.34;5159276;27;45461;-63
2023/04/24 07:26:51;;;;;;;;;23.33;21.33;;;;;13.27;71.36;100553.25;5159813;27;45334;-63
2023/04/24 07:29:17;;;;;;;;;26.00;22.00;;;;;13.37;70.49;100563.47;5158356;27;45726;-63
2023/04/24 07:31:42;;;;;;;;;24.00;19.67;;;;;13.50;70.04;100571.78;5155948;27;46769;-63
2023/04/24 07:34:07;;;;;;;;;25.67;23.67;;;;;13.68;68.62;100578.19;5160415;27;45335;-63
2023/04/24 07:36:33;;;;;;;;;25.33;22.00;;;;;14.01;69.13;100572.47;5159132;27;45408;-63
2023/04/24 07:38:58;;;;;;;;;27.00;26.33;;;;;14.54;66.86;100580.97;5160443;27;45376;-63
2023/04/24 07:41:24;;;;;;;;;22.33;21.00;;;;;14.92;65.99;100573.19;5149519;27;46333;-63
2023/04/24 07:43:49;;;;;;;;;24.00;20.33;;;;;15.28;65.87;100578.63;5139080;27;45404;-63
2023/04/24 07:46:15;;;;;;;;;26.33;21.67;;;;;15.36;63.29;100586.25;5127950;27;45266;-63
2023/04/24 07:48:40;;;;;;;;;24.33;20.67;;;;;15.27;63.53;100584.00;5107677;27;45537;-63
2023/04/24 07:51:06;;;;;;;;;23.00;21.00;;;;;15.20;64.63;100594.03;5097498;27;46181;-63
2023/04/24 07:53:31;;;;;;;;;25.33;22.00;;;;;15.16;63.42;100576.53;5097643;27;45507;-63
2023/04/24 07:55:57;;;;;;;;;27.67;20.67;;;;;15.40;63.52;100585.19;5098887;27;45332;-63
2023/04/24 07:58:22;;;;;;;;;24.00;21.00;;;;;15.38;62.73;100573.78;5118705;27;45223;-63
2023/04/24 08:00:47;;;;;;;;;25.67;22.33;;;;;15.28;61.82;100572.47;5114184;27;45581;-63
2023/04/24 08:03:13;;;;;;;;;22.00;22.00;;;;;15.36;62.88;100593.34;5134960;27;45350;-63
2023/04/24 08:05:39;;;;;;;;;17.33;17.33;;;;;15.43;61.60;100594.78;5118997;27;45616;-63
2023/04/24 08:08:04;;;;;;;;;26.67;19.33;;;;;15.58;61.59;100596.75;5116101;27;45404;-63
2023/04/24 08:10:29;;;;;;;;;27.67;23.67;;;;;15.71;61.55;100607.63;5117707;27;46178;-63
2023/04/24 08:12:55;;;;;;;;;27.33;24.00;;;;;15.68;61.65;100618.41;5117742;27;45412;-63
2023/04/24 08:15:21;;;;;;;;;28.33;23.67;;;;;15.55;60.65;100619.91;5111287;27;45471;-63
2023/04/24 08:17:46;;;;;;;;;29.00;21.00;;;;;15.48;61.55;100621.97;5095036;27;45534;-63
2023/04/24 08:20:15;;;;;;;;;23.00;21.67;;;;;15.47;60.37;100620.25;5106067;27;45402;-64
2023/04/24 08:22:42;;;;;;;;;27.33;19.33;;;;;15.24;60.90;100614.19;5116371;27;45452;-62
2023/04/24 08:25:08;;;;;;;;;22.67;19.67;;;;;15.04;61.23;100630.13;5096156;27;46729;-63
2023/04/24 08:27:34;;;;;;;;;21.00;19.00;;;;;14.76;61.37;100626.00;5110328;27;45470;-64
2023/04/24 08:29:59;;;;;;;;;19.33;19.33;;;;;14.55;61.71;100635.66;5116995;27;45370;-64
2023/04/24 08:32:28;;;;;;;;;20.00;18.33;;;;;14.39;62.57;100628.34;5116739;27;45474;-64
2023/04/24 08:34:56;;;;;;;;;24.00;20.67;;;;;14.30;62.43;100634.00;5116385;27;45808;-64
2023/04/24 08:37:22;;;;;;;;;20.33;18.33;;;;;14.27;62.43;100642.06;5117470;27;45517;-64
2023/04/24 08:39:47;;;;;;;;;20.00;15.67;;;;;14.27;63.66;100637.66;5117303;27;45518;-64
2023/04/24 08:42:14;;;;;;;;;26.00;21.33;;;;;14.31;62.69;100642.84;5117594;27;45363;-63
2023/04/24 08:44:40;;;;;;;;;18.67;17.33;;;;;14.25;62.92;100634.19;5137859;27;45365;-64
2023/04/24 08:47:07;;;;;;;;;18.00;15.67;;;;;14.17;62.77;100636.28;5128878;27;45392;-64
2023/04/24 08:49:33;;;;;;;;;21.33;17.33;;;;;14.13;62.22;100647.06;5120325;27;45477;-64
2023/04/24 08:51:59;;;;;;;;;18.00;16.00;;;;;14.09;62.74;100651.63;5126009;27;45585;-64
2023/04/24 08:54:25;;;;;;;;;17.33;16.67;;;;;14.01;62.86;100632.50;5139109;27;45439;-64
2023/04/24 08:56:54;;;;;;;;;19.33;19.33;;;;;14.12;62.62;100640.06;5141375;27;45422;-65
2023/04/24 08:59:21;;;;;;;;;18.33;17.33;;;;;14.60;62.61;100623.09;5140816;27;45653;-65
2023/04/24 09:01:50;;;;;;;;;20.33;18.00;;;;;15.09;60.23;100647.56;5129326;27;45437;-65
2023/04/24 09:04:19;;;;;;;;;16.33;16.00;;;;;15.14;58.95;100634.94;5141281;27;45410;-65
2023/04/24 09:06:45;;;;;;;;;21.67;21.67;;;;;15.56;59.28;100653.47;5120198;27;45536;-65
2023/04/24 09:09:11;;;;;;;;;16.67;15.33;;;;;15.87;58.05;100633.50;5120230;27;47049;-65
2023/04/24 09:11:37;;;;;;;;;22.33;18.00;;;;;16.22;58.05;100630.97;5137633;27;45441;-65
2023/04/24 09:14:03;;;;;;;;;21.00;20.33;;;;;16.50;56.64;100642.00;5141163;27;45268;-65
2023/04/24 09:16:29;;;;;;;;;22.00;19.33;;;;;16.45;57.13;100645.81;5141318;27;45370;-65
2023/04/24 09:18:55;;;;;;;;;19.33;16.33;;;;;16.20;56.81;100631.06;5129765;27;45995;-66
2023/04/24 09:21:23;;;;;;;;;20.67;18.00;;;;;16.11;56.81;100645.63;5132040;27;45879;-64
2023/04/24 09:23:59;;;;;;;;;24.67;20.33;;;;;15.92;57.34;100648.31;5127105;27;45547;-64
2023/04/24 09:26:24;;;;;;;;;22.00;21.00;;;;;16.00;57.37;100651.47;5140777;27;45526;-64
2023/04/24 09:28:50;;;;;;;;;24.00;21.67;;;;;15.97;57.79;100646.28;5138892;27;45421;-64
2023/04/24 09:31:18;;;;;;;;;28.33;22.00;;;;;16.54;55.98;100655.97;5139918;27;45386;-63
2023/04/24 09:34:08;;;;;;;;;23.67;21.33;;;;;16.84;56.82;100660.72;5140639;27;45456;-64
2023/04/24 09:36:38;;;;;;;;;30.00;23.33;;;;;17.02;55.11;100656.28;5141088;27;45550;-63
2023/04/24 09:39:08;;;;;;;;;24.33;19.00;;;;;16.95;54.05;100666.38;5140933;27;48010;-63
2023/04/24 09:41:33;;;;;;;;;23.67;23.00;;;;;16.75;54.70;100659.38;5158267;27;45414;-63
2023/04/24 09:44:22;;;;;;;;;26.67;23.00;;;;;16.93;55.13;100662.94;5161470;27;45393;-63
2023/04/24 09:46:53;;;;;;;;;21.00;18.67;;;;;16.91;55.11;100667.47;5161967;27;45482;-63
2023/04/24 09:49:29;;;;;;;;;18.33;14.67;;;;;16.67;54.56;100653.56;5146605;27;46016;-63
2023/04/24 09:52:10;;;;;;;;;22.67;20.67;;;;;16.34;54.76;100675.56;5133753;27;45456;-62
2023/04/24 09:54:36;;;;;;;;;25.00;22.33;;;;;16.06;55.35;100670.69;5161668;27;45488;-63
2023/04/24 09:57:02;;;;;;;;;23.00;19.67;;;;;15.88;56.58;100657.34;5132583;27;45254;-63
2023/04/24 09:59:28;;;;;;;;;21.33;19.67;;;;;15.84;56.07;100663.72;5119276;27;45346;-64
2023/04/24 10:01:54;;;;;;;;;33.33;26.00;;;;;15.76;56.39;100673.81;5132450;27;45329;-64
2023/04/24 10:04:22;;;;;;;;;26.33;23.00;;;;;15.65;55.79;100675.16;5127798;27;45319;-63
2023/04/24 10:06:50;;;;;;;;;19.67;18.67;;;;;15.58;56.05;100679.03;5129556;27;45442;-64
2023/04/24 10:09:19;;;;;;;;;24.67;21.67;;;;;15.48;57.19;100677.69;5134230;27;45806;-63
2023/04/24 10:11:46;;;;;;;;;25.00;23.00;;;;;15.44;57.30;100676.13;5148637;27;45527;-63
2023/04/24 10:14:15;;;;;;;;;22.33;19.00;;;;;15.46;57.16;100683.06;5140354;27;45413;-63
2023/04/24 10:16:41;;;;;;;;;36.33;29.00;;;;;15.62;57.44;100682.41;5139809;27;45525;-63
2023/04/24 10:19:07;;;;;;;;;20.00;18.33;;;;;15.73;56.74;100674.81;5138024;27;45842;-63
2023/04/24 10:21:34;;;;;;;;;24.00;20.00;;;;;15.76;56.25;100677.31;5127070;27;45410;-63
2023/04/24 10:24:03;;;;;;;;;21.33;18.00;;;;;15.90;55.62;100673.19;5119806;27;45348;-63
2023/04/24 10:26:29;;;;;;;;;20.33;20.33;;;;;15.84;55.30;100675.22;5119783;27;45545;-64
2023/04/24 10:28:57;;;;;;;;;21.00;17.67;;;;;15.82;55.37;100676.22;5156750;27;45443;-64
2023/04/24 10:31:23;;;;;;;;;24.00;24.00;;;;;15.59;56.06;100648.03;5131669;27;45269;-63
2023/04/24 10:33:51;;;;;;;;;25.67;22.00;;;;;15.57;56.36;100677.28;5138800;27;45515;-63
2023/04/24 10:36:17;;;;;;;;;20.33;17.67;;;;;15.40;56.48;100688.66;5138312;27;45476;-63
2023/04/24 10:38:45;;;;;;;;;23.00;20.33;;;;;15.26;57.08;100691.91;5135226;27;45885;-63
2023/04/24 10:41:20;;;;;;;;;27.67;24.33;;;;;15.10;58.18;100702.31;5115519;27;45463;-63
2023/04/24 10:43:48;;;;;;;;;25.00;23.00;;;;;14.94;58.93;100690.63;5132529;27;45379;-64
2023/04/24 10:46:20;;;;;;;;;29.67;26.33;;;;;14.78;60.10;100679.78;5127402;27;45383;-61
2023/04/24 10:48:54;;;;;;;;;27.00;24.00;;;;;15.02;59.58;100703.56;5109296;27;46231;-63
2023/04/24 10:51:22;;;;;;;;;21.67;21.67;;;;;14.93;60.08;100707.47;5122460;27;45391;-63
2023/04/24 10:53:50;;;;;;;;;35.67;29.00;;;;;14.95;59.85;100711.75;5120895;27;45580;-62
2023/04/24 10:56:16;;;;;;;;;29.33;27.67;;;;;14.99;60.04;100709.88;5118134;27;45929;-63
2023/04/24 10:58:53;;;;;;;;;27.33;24.33;;;;;14.98;60.01;100708.97;5118395;27;45548;-63
2023/04/24 11:01:32;;;;;;;;;29.00;26.67;;;;;14.95;60.17;100705.63;5103369;27;45418;-62
2023/04/24 11:04:02;;;;;;;;;19.67;19.67;;;;;14.93;59.81;100707.47;5119007;27;45404;-63
2023/04/24 11:06:34;;;;;;;;;31.33;24.00;;;;;14.82;59.32;100722.97;5119431;27;45336;-63